createdAt,value
2022-11-25T00:01:56.104Z,24.65
2022-11-25T00:04:25.329Z,23.92
2022-11-25T00:06:54.310Z,17.40
2022-11-25T00:09:23.614Z,24.85
2022-11-25T00:11:54.074Z,31.13
2022-11-25T00:14:23.263Z,29.52
2022-11-25T00:16:52.345Z,24.35
2022-11-25T00:19:21.524Z,21.13
2022-11-25T00:21:50.565Z,21.13
2022-11-25T00:24:19.622Z,22.38
2022-11-25T00:26:48.667Z,24.50
2022-11-25T00:29:19.177Z,20.88
2022-11-25T00:31:48.269Z,24.83
2022-11-25T00:34:17.528Z,19.90
2022-11-25T00:36:46.647Z,25.95
2022-11-25T00:39:19.922Z,27.45
2022-11-25T00:42:06.490Z,19.88
2022-11-25T00:47:11.701Z,20.95
2022-11-25T00:49:42.806Z,18.60
2022-11-25T00:52:16.352Z,15.70
2022-11-25T00:54:46.143Z,14.88
2022-11-25T00:57:17.420Z,17.73
2022-11-25T00:59:48.899Z,19.05
2022-11-25T01:02:19.530Z,20.20
2022-11-25T01:04:49.076Z,18.20
2022-11-25T01:07:19.039Z,20.20
2022-11-25T01:09:50.843Z,17.10
2022-11-25T01:12:19.999Z,18.85
2022-11-25T01:14:50.508Z,21.45
2022-11-25T01:17:19.625Z,18.58
2022-11-25T01:19:49.403Z,22.60
2022-11-25T01:22:18.567Z,19.25
2022-11-25T01:24:47.707Z,17.00
2022-11-25T01:27:16.782Z,21.48
2022-11-25T01:29:45.840Z,18.42
2022-11-25T01:32:17.552Z,19.23
2022-11-25T01:34:46.654Z,17.45
2022-11-25T01:37:15.776Z,20.58
2022-11-25T01:39:46.130Z,19.55
2022-11-25T01:42:15.124Z,19.63
2022-11-25T01:44:44.491Z,19.00
2022-11-25T01:47:23.487Z,18.83
2022-11-25T01:50:06.336Z,21.92
2022-11-25T01:52:39.421Z,15.55
2022-11-25T01:55:12.636Z,19.23
2022-11-25T01:57:46.840Z,18.52
2022-11-25T02:00:18.081Z,24.60
2022-11-25T02:02:50.798Z,18.10
2022-11-25T02:05:30.946Z,19.25
2022-11-25T02:08:03.131Z,18.30
2022-11-25T02:10:34.116Z,16.67
2022-11-25T02:13:04.928Z,26.80
2022-11-25T02:15:36.143Z,22.10
2022-11-25T02:18:08.770Z,29.55
2022-11-25T02:20:41.058Z,27.02
2022-11-25T02:23:29.597Z,17.92
2022-11-25T02:26:04.073Z,17.95
2022-11-25T02:28:34.566Z,21.45
2022-11-25T02:31:08.166Z,13.63
2022-11-25T02:33:38.626Z,15.25
2022-11-25T02:36:14.028Z,13.05
2022-11-25T02:38:48.771Z,14.82
2022-11-25T02:41:26.552Z,19.38
2022-11-25T02:44:01.679Z,32.45
2022-11-25T02:46:31.512Z,18.60
2022-11-25T02:49:10.821Z,19.10
2022-11-25T02:51:43.990Z,24.42
2022-11-25T02:54:15.645Z,20.20
2022-11-25T02:56:46.472Z,19.83
2022-11-25T02:59:16.598Z,20.85
2022-11-25T03:01:45.775Z,21.27
2022-11-25T03:04:15.180Z,25.13
2022-11-25T03:06:44.225Z,23.25
2022-11-25T03:09:13.342Z,25.52
2022-11-25T03:11:59.843Z,27.45
2022-11-25T03:14:30.546Z,25.35
2022-11-25T03:16:59.627Z,23.45
2022-11-25T03:19:30.000Z,22.30
2022-11-25T03:21:59.187Z,19.13
2022-11-25T03:24:28.320Z,19.40
2022-11-25T03:26:57.470Z,21.77
2022-11-25T03:29:26.906Z,18.25
2022-11-25T03:31:57.489Z,17.42
2022-11-25T03:34:26.743Z,17.50
2022-11-25T03:36:55.968Z,17.60
2022-11-25T03:39:28.507Z,19.25
2022-11-25T03:41:57.673Z,16.98
2022-11-25T03:44:26.865Z,13.80
2022-11-25T03:46:57.368Z,15.57
2022-11-25T03:49:26.819Z,13.82
2022-11-25T03:51:57.006Z,11.57
2022-11-25T03:54:26.437Z,15.80
2022-11-25T03:57:16.084Z,17.50
2022-11-25T03:59:45.199Z,12.15
2022-11-25T04:02:15.918Z,14.00
2022-11-25T04:04:45.151Z,20.95
2022-11-25T04:07:14.325Z,10.40
2022-11-25T04:09:43.450Z,11.45
2022-11-25T04:12:32.171Z,14.68
2022-11-25T04:15:08.220Z,12.57
2022-11-25T04:17:38.987Z,17.25
2022-11-25T04:20:10.354Z,11.88
2022-11-25T04:22:40.966Z,14.88
2022-11-25T04:25:11.448Z,13.98
2022-11-25T04:27:40.620Z,17.02
2022-11-25T04:30:11.463Z,20.00
2022-11-25T04:32:44.302Z,20.20
2022-11-25T04:35:15.512Z,14.13
2022-11-25T04:37:48.513Z,19.27
2022-11-25T04:40:17.905Z,15.50
2022-11-25T04:42:56.272Z,14.02
2022-11-25T04:45:45.397Z,20.40
2022-11-25T04:48:19.552Z,13.63
2022-11-25T04:50:49.082Z,14.05
2022-11-25T04:53:19.938Z,13.50
2022-11-25T04:55:49.928Z,16.85
2022-11-25T04:58:39.085Z,14.57
2022-11-25T05:01:07.778Z,12.15
2022-11-25T05:03:38.382Z,14.30
2022-11-25T05:06:08.896Z,13.85
2022-11-25T05:08:40.051Z,13.25
2022-11-25T05:11:11.657Z,10.45
2022-11-25T05:13:40.772Z,12.95
2022-11-25T05:16:11.575Z,11.52
2022-11-25T05:18:42.036Z,12.32
2022-11-25T05:21:11.251Z,14.65
2022-11-25T05:23:43.484Z,13.77
2022-11-25T05:26:12.918Z,12.68
2022-11-25T05:28:45.500Z,12.95
2022-11-25T05:31:14.951Z,14.50
2022-11-25T05:33:47.054Z,12.70
2022-11-25T05:36:17.650Z,11.18
2022-11-25T05:38:49.159Z,8.68
2022-11-25T05:41:26.336Z,14.40
2022-11-25T05:43:56.950Z,12.93
2022-11-25T05:46:26.334Z,16.17
2022-11-25T05:49:00.578Z,17.10
2022-11-25T05:51:30.455Z,12.07
2022-11-25T05:54:01.846Z,17.73
2022-11-25T05:56:33.476Z,14.98
2022-11-25T05:59:20.934Z,14.65
2022-11-25T06:02:06.682Z,18.77
2022-11-25T06:04:38.147Z,27.00
2022-11-25T06:07:07.530Z,18.33
2022-11-25T06:09:36.988Z,12.65
2022-11-25T06:12:06.836Z,12.63
2022-11-25T06:14:40.879Z,14.63
2022-11-25T06:17:09.976Z,14.65
2022-11-25T06:19:48.603Z,19.00
2022-11-25T06:22:17.972Z,19.58
2022-11-25T06:24:52.238Z,15.07
2022-11-25T06:27:43.950Z,14.95
2022-11-25T06:30:18.245Z,15.23
2022-11-25T06:33:01.315Z,16.35
2022-11-25T06:35:31.860Z,16.50
2022-11-25T06:38:04.255Z,17.88
2022-11-25T06:40:33.580Z,15.98
2022-11-25T06:43:02.796Z,18.27
2022-11-25T06:45:31.796Z,15.85
2022-11-25T06:48:00.935Z,14.77
2022-11-25T06:50:31.488Z,18.63
2022-11-25T06:53:02.411Z,18.30
2022-11-25T06:55:31.540Z,20.13
2022-11-25T06:58:27.878Z,15.40
2022-11-25T07:00:49.651Z,18.63
2022-11-25T07:03:18.741Z,19.83
2022-11-25T07:05:49.328Z,21.63
2022-11-25T07:08:18.951Z,19.08
2022-11-25T07:10:48.022Z,14.98
2022-11-25T07:13:17.083Z,19.80
2022-11-25T07:15:46.188Z,19.85
2022-11-25T07:18:15.583Z,16.27
2022-11-25T07:20:44.647Z,17.75
2022-11-25T07:23:15.172Z,20.55
2022-11-25T07:25:44.224Z,15.75
2022-11-25T07:28:13.584Z,17.70
2022-11-25T07:33:32.122Z,21.58
2022-11-25T07:36:04.313Z,15.52
2022-11-25T07:38:35.437Z,16.85
2022-11-25T07:41:08.489Z,13.70
2022-11-25T07:43:38.047Z,15.85
2022-11-25T07:46:14.533Z,13.30
2022-11-25T07:48:44.519Z,20.15
2022-11-25T07:51:19.155Z,17.67
2022-11-25T07:53:51.196Z,14.73
2022-11-25T07:56:21.204Z,14.25
2022-11-25T07:58:50.612Z,13.93
2022-11-25T08:01:20.972Z,14.07
2022-11-25T08:03:52.406Z,13.23
2022-11-25T08:06:24.633Z,15.85
2022-11-25T08:08:57.397Z,12.27
2022-11-25T08:11:29.154Z,11.25
2022-11-25T08:13:59.171Z,12.43
2022-11-25T08:16:32.218Z,10.63
2022-11-25T08:19:03.633Z,12.40
2022-11-25T08:21:32.850Z,11.10
2022-11-25T08:24:04.113Z,11.55
2022-11-25T08:26:36.531Z,14.05
2022-11-25T08:29:07.712Z,10.82
2022-11-25T08:31:39.130Z,13.57
2022-11-25T08:34:08.691Z,17.02
2022-11-25T08:36:38.170Z,13.15
2022-11-25T08:39:28.881Z,12.80
2022-11-25T08:41:58.645Z,10.63
2022-11-25T08:44:30.029Z,9.27
2022-11-25T08:46:59.232Z,10.02
2022-11-25T08:49:34.781Z,13.18
2022-11-25T08:52:08.159Z,10.20
2022-11-25T08:54:39.328Z,11.02
2022-11-25T08:57:08.499Z,12.10
2022-11-25T08:59:37.987Z,10.15
2022-11-25T09:02:07.860Z,11.27
2022-11-25T09:04:37.122Z,7.72
2022-11-25T09:07:06.606Z,8.20
2022-11-25T09:09:36.514Z,6.05
2022-11-25T09:12:07.564Z,7.45
2022-11-25T09:14:36.650Z,6.13
2022-11-25T09:17:11.129Z,7.10
2022-11-25T09:19:40.406Z,8.23
2022-11-25T09:22:09.857Z,9.48
2022-11-25T09:24:38.889Z,6.55
2022-11-25T09:27:09.282Z,7.68
2022-11-25T09:29:38.692Z,10.85
2022-11-25T09:32:07.972Z,6.55
2022-11-25T09:34:37.334Z,6.78
2022-11-25T09:37:06.656Z,10.32
2022-11-25T09:39:36.388Z,5.68
2022-11-25T09:42:44.540Z,8.02
2022-11-25T09:45:38.850Z,6.80
2022-11-25T09:48:31.704Z,6.38
2022-11-25T09:51:11.816Z,8.13
2022-11-25T09:53:45.683Z,6.65
2022-11-25T09:56:28.533Z,7.85
2022-11-25T09:59:05.825Z,13.77
2022-11-25T10:01:45.121Z,10.13
2022-11-25T10:04:20.715Z,11.13
2022-11-25T10:06:55.750Z,11.65
2022-11-25T10:09:28.131Z,6.75
2022-11-25T10:12:01.777Z,10.23
2022-11-25T10:14:39.986Z,12.25
2022-11-25T10:17:19.588Z,12.40
2022-11-25T10:19:58.163Z,8.55
2022-11-25T10:22:31.611Z,10.02
2022-11-25T10:25:03.563Z,8.20
2022-11-25T10:27:43.299Z,8.75
2022-11-25T10:30:21.790Z,7.32
2022-11-25T10:32:59.300Z,8.80
2022-11-25T10:35:36.823Z,6.70
2022-11-25T10:38:18.565Z,8.73
2022-11-25T10:40:51.775Z,8.27
2022-11-25T10:43:20.923Z,12.80
2022-11-25T10:46:04.092Z,9.93
2022-11-25T10:48:52.720Z,7.75
2022-11-25T10:51:43.150Z,8.80
2022-11-25T10:54:25.500Z,10.32
2022-11-25T10:56:58.700Z,11.25
2022-11-25T10:59:31.456Z,15.40
2022-11-25T11:02:28.725Z,17.10
2022-11-25T11:05:01.350Z,27.13
2022-11-25T11:07:34.243Z,19.85
2022-11-25T11:10:21.819Z,14.75
2022-11-25T11:12:58.845Z,12.95
2022-11-25T11:15:30.567Z,17.60
2022-11-25T11:18:15.738Z,12.05
2022-11-25T11:20:48.815Z,13.68
2022-11-25T11:23:18.340Z,13.52
2022-11-25T11:25:59.444Z,10.90
2022-11-25T11:28:38.694Z,8.07
2022-11-25T11:31:19.257Z,5.95
2022-11-25T11:34:10.254Z,5.68
2022-11-25T11:37:05.255Z,7.82
2022-11-25T11:40:01.066Z,5.70
2022-11-25T11:42:40.550Z,4.47
2022-11-25T11:45:30.289Z,3.47
2022-11-25T11:48:13.123Z,9.35
2022-11-25T11:50:49.098Z,3.95
2022-11-25T11:53:30.954Z,5.75
2022-11-25T11:59:38.140Z,5.97
2022-11-25T12:02:25.298Z,5.18
2022-11-25T12:05:06.092Z,6.68
2022-11-25T12:07:45.928Z,4.57
2022-11-25T12:10:27.013Z,4.00
2022-11-25T12:13:06.836Z,4.13
2022-11-25T12:15:45.132Z,6.03
2022-11-25T12:18:32.272Z,6.10
2022-11-25T12:21:05.469Z,3.93
2022-11-25T12:23:47.639Z,5.30
2022-11-25T12:26:23.570Z,5.20
2022-11-25T12:28:58.699Z,4.78
2022-11-25T12:31:32.457Z,5.82
2022-11-25T12:34:09.141Z,4.68
2022-11-25T12:36:41.562Z,5.30
2022-11-25T12:39:25.375Z,4.93
2022-11-25T12:42:01.003Z,6.57
2022-11-25T12:44:37.430Z,6.38
2022-11-25T12:47:11.652Z,5.03
2022-11-25T12:49:44.905Z,4.25
2022-11-25T12:52:42.357Z,6.78
2022-11-25T12:55:18.785Z,5.15
2022-11-25T12:58:37.716Z,6.18
2022-11-25T13:01:46.747Z,8.53
2022-11-25T13:08:01.796Z,3.58
2022-11-25T13:10:52.265Z,6.95
2022-11-25T13:13:39.845Z,5.18
2022-11-25T13:16:11.788Z,6.28
2022-11-25T13:18:45.496Z,4.65
2022-11-25T13:21:16.683Z,4.03
2022-11-25T13:23:53.267Z,6.68
2022-11-25T13:26:53.436Z,4.47
2022-11-25T13:30:05.237Z,2.65
2022-11-25T13:32:42.267Z,5.72
2022-11-25T13:35:38.222Z,5.53
2022-11-25T13:39:02.010Z,6.18
2022-11-25T13:41:44.955Z,4.22
2022-11-25T13:44:35.274Z,6.43
2022-11-25T13:47:26.202Z,4.28
2022-11-25T13:49:59.520Z,3.50
2022-11-25T13:52:42.371Z,4.90
2022-11-25T13:55:34.010Z,3.03
2022-11-25T13:58:21.516Z,6.53
2022-11-25T14:01:30.491Z,4.70
2022-11-25T14:04:01.457Z,4.10
2022-11-25T14:06:53.396Z,5.88
2022-11-25T14:09:44.989Z,6.13
2022-11-25T14:12:44.581Z,5.05
2022-11-25T14:15:35.802Z,3.88
2022-11-25T14:19:03.583Z,4.80
2022-11-25T14:21:49.582Z,3.45
2022-11-25T14:24:31.277Z,6.65
2022-11-25T14:27:01.423Z,4.95
2022-11-25T14:29:38.810Z,4.95
2022-11-25T14:32:14.716Z,4.72
2022-11-25T14:34:48.053Z,5.07
2022-11-25T14:37:22.733Z,5.22
2022-11-25T14:39:57.483Z,3.78
2022-11-25T14:42:34.196Z,6.55
2022-11-25T14:45:03.429Z,4.68
2022-11-25T14:47:37.572Z,4.38
2022-11-25T14:53:08.943Z,5.00
2022-11-25T14:55:39.126Z,4.93
2022-11-25T14:58:08.231Z,7.53
2022-11-25T15:00:51.683Z,5.18
2022-11-25T15:03:22.440Z,10.05
2022-11-25T15:05:57.210Z,10.07
2022-11-25T15:08:27.614Z,6.40
2022-11-25T15:11:00.074Z,6.43
2022-11-25T15:13:34.387Z,9.40
2022-11-25T15:16:11.715Z,9.85
2022-11-25T15:21:18.579Z,10.90
2022-11-25T15:23:47.881Z,7.75
2022-11-25T15:26:21.667Z,10.23
2022-11-25T15:28:56.873Z,12.63
2022-11-25T15:31:31.690Z,9.85
2022-11-25T15:34:07.047Z,14.07
2022-11-25T15:36:36.196Z,8.70
2022-11-25T15:39:17.335Z,9.00
2022-11-25T15:41:49.857Z,11.38
2022-11-25T15:44:23.296Z,12.45
2022-11-25T15:46:57.448Z,10.65
2022-11-25T15:49:28.340Z,8.77
2022-11-25T15:52:04.638Z,8.02
2022-11-25T15:54:40.317Z,10.15
2022-11-25T15:57:19.087Z,9.70
2022-11-25T15:59:51.898Z,10.40
2022-11-25T16:02:40.956Z,48.58
2022-11-25T16:05:29.003Z,25.17
2022-11-25T16:10:32.163Z,10.43
2022-11-25T16:13:33.564Z,11.80
2022-11-25T16:16:24.154Z,10.88
2022-11-25T16:19:26.813Z,11.93
2022-11-25T16:22:04.275Z,12.40
2022-11-25T16:24:50.583Z,16.20
2022-11-25T16:27:23.848Z,27.77
2022-11-25T16:29:56.893Z,23.38
2022-11-25T16:32:28.675Z,14.32
2022-11-25T16:35:02.033Z,16.10
2022-11-25T16:37:32.481Z,13.73
2022-11-25T16:40:01.575Z,14.73
2022-11-25T16:42:30.810Z,9.32
2022-11-25T16:45:02.506Z,8.40
2022-11-25T16:47:31.830Z,7.45
2022-11-25T16:50:02.779Z,8.70
2022-11-25T16:52:33.408Z,6.07
2022-11-25T16:55:02.507Z,8.90
2022-11-25T16:57:31.958Z,9.90
2022-11-25T17:00:08.439Z,12.55
2022-11-25T17:02:38.115Z,9.68
2022-11-25T17:05:18.842Z,11.68
2022-11-25T17:07:51.099Z,8.23
2022-11-25T17:10:21.732Z,11.55
2022-11-25T17:12:51.575Z,11.52
2022-11-25T17:15:31.304Z,11.82
2022-11-25T17:18:01.616Z,11.05
2022-11-25T17:20:30.820Z,9.70
2022-11-25T17:23:02.375Z,11.60
2022-11-25T17:25:36.672Z,13.77
2022-11-25T17:28:06.539Z,11.05
2022-11-25T17:30:36.176Z,16.85
2022-11-25T17:33:09.005Z,17.85
2022-11-25T17:35:38.241Z,11.02
2022-11-25T17:38:14.488Z,10.60
2022-11-25T17:40:44.732Z,8.90
2022-11-25T17:43:20.385Z,11.02
2022-11-25T17:45:49.658Z,9.90
2022-11-25T17:48:20.091Z,13.18
2022-11-25T17:50:49.191Z,11.25
2022-11-25T17:53:22.098Z,11.98
2022-11-25T17:55:51.481Z,10.85
2022-11-25T17:58:21.730Z,9.43
2022-11-25T18:00:51.047Z,14.10
2022-11-25T18:03:20.502Z,9.45
2022-11-25T18:05:49.843Z,8.38
2022-11-25T18:08:20.739Z,10.25
2022-11-25T18:10:50.045Z,12.98
2022-11-25T18:13:19.191Z,13.68
2022-11-25T18:15:48.808Z,14.57
2022-11-25T18:18:22.893Z,18.77
2022-11-25T18:20:52.408Z,11.93
2022-11-25T18:23:24.194Z,14.75
2022-11-25T18:25:55.596Z,9.88
2022-11-25T18:28:28.018Z,10.48
2022-11-25T18:31:03.688Z,13.43
2022-11-25T18:33:33.618Z,11.60
2022-11-25T18:36:02.864Z,12.45
2022-11-25T18:38:34.139Z,9.23
2022-11-25T18:41:03.619Z,10.75
2022-11-25T18:43:34.903Z,13.02
2022-11-25T18:46:05.001Z,11.75
2022-11-25T18:48:34.512Z,12.50
2022-11-25T18:51:03.856Z,14.57
2022-11-25T18:53:34.576Z,21.05
2022-11-25T18:56:03.818Z,17.75
2022-11-25T18:58:33.885Z,15.95
2022-11-25T19:01:06.866Z,19.77
2022-11-25T19:03:36.036Z,21.17
2022-11-25T19:06:05.735Z,14.50
2022-11-25T19:08:36.398Z,15.50
2022-11-25T19:11:05.997Z,18.88
2022-11-25T19:13:37.429Z,26.63
2022-11-25T19:16:11.391Z,20.05
2022-11-25T19:18:40.888Z,23.33
2022-11-25T19:21:15.466Z,23.20
2022-11-25T19:23:47.051Z,28.65
2022-11-25T19:26:19.588Z,26.73
2022-11-25T19:28:52.856Z,31.60
2022-11-25T19:31:22.450Z,28.58
2022-11-25T19:33:52.814Z,34.83
2022-11-25T19:36:25.512Z,33.03
2022-11-25T19:38:56.400Z,40.45
2022-11-25T19:41:25.680Z,36.95
2022-11-25T19:43:54.844Z,37.97
2022-11-25T19:46:33.167Z,37.00
2022-11-25T19:49:07.087Z,38.45
2022-11-25T19:51:36.602Z,32.63
2022-11-25T19:54:10.538Z,33.25
2022-11-25T19:56:40.230Z,27.13
2022-11-25T19:59:10.534Z,25.40
2022-11-25T20:01:42.829Z,23.25
2022-11-25T20:04:20.636Z,22.35
2022-11-25T20:06:50.797Z,23.30
2022-11-25T20:09:21.291Z,27.17
2022-11-25T20:11:54.418Z,23.40
2022-11-25T20:14:23.515Z,19.30
2022-11-25T20:16:52.805Z,24.95
2022-11-25T20:19:22.039Z,21.33
2022-11-25T20:21:51.292Z,22.38
2022-11-25T20:24:22.060Z,26.35
2022-11-25T20:26:51.675Z,26.30
2022-11-25T20:29:28.980Z,24.55
2022-11-25T20:31:59.845Z,26.90
2022-11-25T20:34:31.319Z,32.30
2022-11-25T20:37:00.661Z,29.30
2022-11-25T20:39:31.683Z,28.80
2022-11-25T20:42:01.521Z,30.70
2022-11-25T20:44:30.591Z,29.88
2022-11-25T20:46:59.745Z,31.08
2022-11-25T20:49:29.565Z,32.92
2022-11-25T20:51:58.908Z,31.15
2022-11-25T20:54:27.995Z,29.40
2022-11-25T20:56:58.460Z,35.65
2022-11-25T20:59:28.717Z,30.45
2022-11-25T21:01:57.931Z,29.83
2022-11-25T21:04:27.087Z,33.17
2022-11-25T21:06:56.660Z,27.23
2022-11-25T21:09:34.572Z,23.70
2022-11-25T21:12:17.532Z,20.05
2022-11-25T21:14:48.925Z,24.83
2022-11-25T21:17:18.027Z,24.17
2022-11-25T21:19:47.228Z,34.65
2022-11-25T21:22:23.902Z,32.75
2022-11-25T21:24:53.166Z,27.65
2022-11-25T21:27:23.756Z,29.65
2022-11-25T21:29:53.971Z,29.73
2022-11-25T21:32:25.956Z,29.35
2022-11-25T21:34:55.431Z,27.23
2022-11-25T21:37:32.352Z,27.45
2022-11-25T21:40:02.955Z,27.85
2022-11-25T21:42:34.520Z,32.10
2022-11-25T21:45:04.818Z,22.02
2022-11-25T21:47:34.686Z,19.92
2022-11-25T21:50:10.596Z,24.05
2022-11-25T21:52:40.355Z,29.25
2022-11-25T21:55:14.121Z,33.25
2022-11-25T21:57:45.153Z,30.17
2022-11-25T22:00:25.320Z,29.38
2022-11-25T22:02:56.914Z,31.42
2022-11-25T22:05:26.814Z,22.25
2022-11-25T22:07:57.022Z,24.73
2022-11-25T22:10:26.235Z,22.33
2022-11-25T22:12:56.859Z,20.83
2022-11-25T22:15:26.318Z,21.65
2022-11-25T22:17:58.870Z,19.40
2022-11-25T22:20:33.456Z,21.13
2022-11-25T22:23:03.784Z,29.23
2022-11-25T22:25:34.079Z,20.98
2022-11-25T22:28:05.102Z,16.00
2022-11-25T22:30:34.572Z,13.98
2022-11-25T22:33:05.051Z,17.15
2022-11-25T22:35:34.166Z,19.08
2022-11-25T22:38:03.815Z,15.52
2022-11-25T22:40:33.372Z,22.30
2022-11-25T22:43:02.549Z,19.13
2022-11-25T22:45:35.626Z,26.75
2022-11-25T22:48:07.834Z,20.90
2022-11-25T22:50:37.245Z,19.92
2022-11-25T22:53:14.684Z,19.52
2022-11-25T22:55:44.925Z,20.23
2022-11-25T22:58:15.716Z,18.73
2022-11-25T23:00:48.702Z,18.58
2022-11-25T23:03:22.123Z,16.33
2022-11-25T23:05:54.331Z,16.63
2022-11-25T23:08:26.637Z,24.20
2022-11-25T23:10:56.820Z,23.80
2022-11-25T23:13:26.260Z,27.10
2022-11-25T23:15:59.543Z,21.95
2022-11-25T23:18:37.991Z,23.20
2022-11-25T23:21:14.241Z,26.67
2022-11-25T23:23:43.381Z,18.42
2022-11-25T23:26:13.927Z,29.05
2022-11-25T23:28:43.477Z,20.58
2022-11-25T23:31:15.702Z,25.23
2022-11-25T23:33:47.564Z,23.05
2022-11-25T23:36:22.860Z,24.42
2022-11-25T23:38:55.265Z,21.10
2022-11-25T23:41:27.242Z,27.88
2022-11-25T23:43:57.025Z,22.42
2022-11-25T23:46:35.437Z,29.15
2022-11-25T23:49:05.508Z,25.67
2022-11-25T23:51:34.716Z,23.88
2022-11-25T23:54:03.795Z,29.23
2022-11-25T23:56:32.825Z,34.42
2022-11-25T23:59:01.910Z,25.00
